^^
Meteo Knjazevac Station Historical Data
Daily Summary for June 20, 2022 Units:  Both    English   Metric
Daily Weekly Monthly Yearly Custom
  High: Low: Average:
Temperature: 87.8 °F /  31 °C 51.4 °F /  10.8 °C 66.2 °F /  19 °C
Dew Point: 64.1 °F /  17.8 °C 49.8 °F /  9.9 °C 55.2 °F /  12.9 °C
Humidity: 96% 37% 73%
Wind Speed: 6mph /  9.7km/h - 2.1mph /  3.4km/h
Wind Gust: 12mph /  19.3km/h - -
Wind- - SW
Pressure: 30.08 in /  1018.5 hPa 29.95 in /  1014.1 hPa -
Precipitation: 0.00 in /  0 mm    
Historical Graphs
 
 
Tabular Data for June 20, 2022
Time Temperature Dew Point Pressure Wind Wind Speed Wind Gust Humidity Rainfall Rate (Hourly) solar Conditions
00:00 59.2 °F /  15.1 °C 54.3 °F /  12.4 °C 30.07in /  1018.2hPa West 2mph /  3.2km/h 5mph /  8km/h 84% 0.00in /  0mm 0 W/m2
00:10 58.8 °F /  14.9 °C 54.3 °F /  12.4 °C 30.08in /  1018.5hPa West 2mph /  3.2km/h 5mph /  8km/h 85% 0.00in /  0mm 0 W/m2
00:20 58.6 °F /  14.8 °C 54.1 °F /  12.3 °C 30.08in /  1018.5hPa West 2mph /  3.2km/h 5mph /  8km/h 85% 0.00in /  0mm 0 W/m2
00:30 58.3 °F /  14.6 °C 53.8 °F /  12.1 °C 30.07in /  1018.2hPa West 2mph /  3.2km/h 5mph /  8km/h 85% 0.00in /  0mm 0 W/m2
00:40 57.9 °F /  14.4 °C 53.4 °F /  11.9 °C 30.07in /  1018.2hPa WSW 2mph /  3.2km/h 4mph /  6.4km/h 85% 0.00in /  0mm 0 W/m2
00:50 57.6 °F /  14.2 °C 53.4 °F /  11.9 °C 30.07in /  1018.2hPa WNW 2mph /  3.2km/h 5mph /  8km/h 86% 0.00in /  0mm 0 W/m2
01:00 57.6 °F /  14.2 °C 53.4 °F /  11.9 °C 30.07in /  1018.2hPa WNW 2mph /  3.2km/h 4mph /  6.4km/h 86% 0.00in /  0mm 0 W/m2
01:10 57.4 °F /  14.1 °C 53.2 °F /  11.8 °C 30.06in /  1017.8hPa West 2mph /  3.2km/h 3mph /  4.8km/h 86% 0.00in /  0mm 0 W/m2
01:20 56.8 °F /  13.8 °C 53 °F /  11.7 °C 30.06in /  1017.8hPa WSW 1mph /  1.6km/h 2mph /  3.2km/h 87% 0.00in /  0mm 0 W/m2
01:30 56.5 °F /  13.6 °C 53 °F /  11.7 °C 30.06in /  1017.8hPa West 2mph /  3.2km/h 4mph /  6.4km/h 88% 0.00in /  0mm 0 W/m2
01:40 56.1 °F /  13.4 °C 52.6 °F /  11.4 °C 30.06in /  1017.8hPa West 2mph /  3.2km/h 4mph /  6.4km/h 88% 0.00in /  0mm 0 W/m2
01:50 55.8 °F /  13.2 °C 52.6 °F /  11.4 °C 30.06in /  1017.8hPa WSW 1mph /  1.6km/h 3mph /  4.8km/h 89% 0.00in /  0mm 0 W/m2
02:00 55.2 °F /  12.9 °C 52 °F /  11.1 °C 30.06in /  1017.8hPa WSW 1mph /  1.6km/h 3mph /  4.8km/h 89% 0.00in /  0mm 0 W/m2
02:10 55 °F /  12.8 °C 52.2 °F /  11.2 °C 30.06in /  1017.8hPa West 2mph /  3.2km/h 4mph /  6.4km/h 90% 0.00in /  0mm 0 W/m2
02:20 54.9 °F /  12.7 °C 52 °F /  11.1 °C 30.06in /  1017.8hPa West 2mph /  3.2km/h 3mph /  4.8km/h 90% 0.00in /  0mm 0 W/m2
02:30 54.7 °F /  12.6 °C 51.8 °F /  11 °C 30.06in /  1017.8hPa West 1mph /  1.6km/h 4mph /  6.4km/h 90% 0.00in /  0mm 0 W/m2
02:40 54.7 °F /  12.6 °C 51.8 °F /  11 °C 30.06in /  1017.8hPa West 2mph /  3.2km/h 3mph /  4.8km/h 90% 0.00in /  0mm 0 W/m2
02:50 54.6 °F /  12.6 °C 52 °F /  11.1 °C 30.06in /  1017.8hPa WNW 3mph /  4.8km/h 5mph /  8km/h 91% 0.00in /  0mm 0 W/m2
03:00 54.3 °F /  12.4 °C 51.7 °F /  10.9 °C 30.06in /  1017.8hPa WNW 1mph /  1.6km/h 5mph /  8km/h 91% 0.00in /  0mm 0 W/m2
03:10 54.1 °F /  12.3 °C 51.6 °F /  10.9 °C 30.06in /  1017.8hPa WNW 2mph /  3.2km/h 3mph /  4.8km/h 91% 0.00in /  0mm 0 W/m2
03:20 53.9 °F /  12.2 °C 51.3 °F /  10.7 °C 30.06in /  1017.8hPa WSW 1mph /  1.6km/h 5mph /  8km/h 91% 0.00in /  0mm 0 W/m2
03:30 53.4 °F /  11.9 °C 50.9 °F /  10.5 °C 30.05in /  1017.5hPa West 2mph /  3.2km/h 3mph /  4.8km/h 91% 0.00in /  0mm 0 W/m2
03:40 53.2 °F /  11.8 °C 50.7 °F /  10.4 °C 30.05in /  1017.5hPa West 1mph /  1.6km/h 3mph /  4.8km/h 91% 0.00in /  0mm 0 W/m2
03:50 53.1 °F /  11.7 °C 51.1 °F /  10.6 °C 30.05in /  1017.5hPa West 2mph /  3.2km/h 3mph /  4.8km/h 93% 0.00in /  0mm 0 W/m2
04:00 52.9 °F /  11.6 °C 50.9 °F /  10.5 °C 30.05in /  1017.5hPa West 2mph /  3.2km/h 3mph /  4.8km/h 93% 0.00in /  0mm 0 W/m2
04:10 52.5 °F /  11.4 °C 50 °F /  10 °C 30.05in /  1017.5hPa WNW 1mph /  1.6km/h 2mph /  3.2km/h 91% 0.00in /  0mm 0 W/m2
04:20 52.3 °F /  11.3 °C 50.4 °F /  10.2 °C 30.05in /  1017.5hPa West 1mph /  1.6km/h 2mph /  3.2km/h 93% 0.00in /  0mm 0 W/m2
04:30 52.2 °F /  11.2 °C 50.2 °F /  10.1 °C 30.05in /  1017.5hPa WNW 1mph /  1.6km/h 2mph /  3.2km/h 93% 0.00in /  0mm 0 W/m2
04:40 52.1 °F /  11.2 °C 50.1 °F /  10.1 °C 30.05in /  1017.5hPa WNW 2mph /  3.2km/h 3mph /  4.8km/h 93% 0.00in /  0mm 0 W/m2
04:50 52 °F /  11.1 °C 50.3 °F /  10.2 °C 30.05in /  1017.5hPa Calm   3mph /  4.8km/h 94% 0.00in /  0mm 3 W/m2
05:00 52 °F /  11.1 °C 50.3 °F /  10.2 °C 30.05in /  1017.5hPa Calm   3mph /  4.8km/h 94% 0.00in /  0mm 8 W/m2
05:10 51.8 °F /  11 °C 50.1 °F /  10.1 °C 30.05in /  1017.5hPa WNW 1mph /  1.6km/h 2mph /  3.2km/h 94% 0.00in /  0mm 13 W/m2
05:20 51.6 °F /  10.9 °C 49.9 °F /  9.9 °C 30.05in /  1017.5hPa West 1mph /  1.6km/h 2mph /  3.2km/h 94% 0.00in /  0mm 22 W/m2
05:30 51.4 °F /  10.8 °C 49.8 °F /  9.9 °C 30.05in /  1017.5hPa WNW 2mph /  3.2km/h 4mph /  6.4km/h 94% 0.00in /  0mm 28 W/m2
05:40 51.6 °F /  10.9 °C 50.2 °F /  10.1 °C 30.05in /  1017.5hPa West 2mph /  3.2km/h 4mph /  6.4km/h 95% 0.00in /  0mm 34 W/m2
05:50 51.6 °F /  10.9 °C 50.2 °F /  10.1 °C 30.05in /  1017.5hPa WSW 1mph /  1.6km/h 4mph /  6.4km/h 95% 0.00in /  0mm 74 W/m2
06:00 51.4 °F /  10.8 °C 49.8 °F /  9.9 °C 30.05in /  1017.5hPa WSW 1mph /  1.6km/h 2mph /  3.2km/h 94% 0.00in /  0mm 96 W/m2
06:10 51.4 °F /  10.8 °C 50.1 °F /  10.1 °C 30.05in /  1017.5hPa WNW 1mph /  1.6km/h 3mph /  4.8km/h 95% 0.00in /  0mm 120 W/m2
06:20 52 °F /  11.1 °C 50.9 °F /  10.5 °C 30.05in /  1017.5hPa WNW 1mph /  1.6km/h 4mph /  6.4km/h 96% 0.00in /  0mm 144 W/m2
06:30 52.3 °F /  11.3 °C 51 °F /  10.6 °C 30.05in /  1017.5hPa WNW 2mph /  3.2km/h 3mph /  4.8km/h 95% 0.00in /  0mm 169 W/m2
06:40 52.9 °F /  11.6 °C 51.5 °F /  10.8 °C 30.04in /  1017.2hPa NW 1mph /  1.6km/h 5mph /  8km/h 95% 0.00in /  0mm 196 W/m2
06:50 53.4 °F /  11.9 °C 52 °F /  11.1 °C 30.04in /  1017.2hPa NW 1mph /  1.6km/h 2mph /  3.2km/h 95% 0.00in /  0mm 224 W/m2
07:00 54 °F /  12.2 °C 52.6 °F /  11.4 °C 30.04in /  1017.2hPa Calm   2mph /  3.2km/h 95% 0.00in /  0mm 254 W/m2
07:10 54.7 °F /  12.6 °C 53.3 °F /  11.8 °C 30.04in /  1017.2hPa WNW 2mph /  3.2km/h 3mph /  4.8km/h 95% 0.00in /  0mm 289 W/m2
07:20 55.8 °F /  13.2 °C 54.1 °F /  12.3 °C 30.04in /  1017.2hPa WNW 3mph /  4.8km/h 6mph /  9.7km/h 94% 0.00in /  0mm 325 W/m2
07:30 56.8 °F /  13.8 °C 54.2 °F /  12.3 °C 30.04in /  1017.2hPa West 2mph /  3.2km/h 6mph /  9.7km/h 91% 0.00in /  0mm 352 W/m2
07:40 57.8 °F /  14.3 °C 54.9 °F /  12.7 °C 30.04in /  1017.2hPa West 2mph /  3.2km/h 4mph /  6.4km/h 90% 0.00in /  0mm 383 W/m2
07:50 58.9 °F /  14.9 °C 56 °F /  13.3 °C 30.04in /  1017.2hPa WSW 1mph /  1.6km/h 3mph /  4.8km/h 90% 0.00in /  0mm 420 W/m2
08:00 60 °F /  15.6 °C 56.7 °F /  13.7 °C 30.03in /  1016.8hPa West 1mph /  1.6km/h 3mph /  4.8km/h 89% 0.00in /  0mm 453 W/m2
08:10 61.2 °F /  16.2 °C 58 °F /  14.4 °C 30.03in /  1016.8hPa WSW 1mph /  1.6km/h 3mph /  4.8km/h 89% 0.00in /  0mm 491 W/m2
08:20 63.3 °F /  17.4 °C 58.7 °F /  14.8 °C 30.03in /  1016.8hPa WSW 1mph /  1.6km/h 6mph /  9.7km/h 85% 0.00in /  0mm 531 W/m2
08:30 65.9 °F /  18.8 °C 59.9 °F /  15.5 °C 30.03in /  1016.8hPa SW 1mph /  1.6km/h 3mph /  4.8km/h 81% 0.00in /  0mm 564 W/m2
08:40 68.1 °F /  20.1 °C 59.8 °F /  15.4 °C 30.03in /  1016.8hPa WSW 2mph /  3.2km/h 5mph /  8km/h 75% 0.00in /  0mm 594 W/m2
08:50 69.7 °F /  20.9 °C 60.7 °F /  15.9 °C 30.03in /  1016.8hPa WSW 2mph /  3.2km/h 5mph /  8km/h 73% 0.00in /  0mm 628 W/m2
09:00 71.3 °F /  21.8 °C 61 °F /  16.1 °C 30.02in /  1016.5hPa WSW 1mph /  1.6km/h 5mph /  8km/h 70% 0.00in /  0mm 655 W/m2
09:10 72.8 °F /  22.7 °C 61.6 °F /  16.4 °C 30.02in /  1016.5hPa SW 1mph /  1.6km/h 3mph /  4.8km/h 68% 0.00in /  0mm 685 W/m2
09:20 74.2 °F /  23.4 °C 63 °F /  17.2 °C 30.01in /  1016.1hPa Calm   4mph /  6.4km/h 68% 0.00in /  0mm 713 W/m2
09:30 75.6 °F /  24.2 °C 62.6 °F /  17 °C 30.01in /  1016.1hPa ESE 1mph /  1.6km/h 5mph /  8km/h 64% 0.00in /  0mm 740 W/m2
09:40 76.8 °F /  24.9 °C 62.8 °F /  17.1 °C 30.01in /  1016.1hPa ESE 3mph /  4.8km/h 8mph /  12.9km/h 62% 0.00in /  0mm 767 W/m2
09:50 77.7 °F /  25.4 °C 62.2 °F /  16.8 °C 30.01in /  1016.1hPa Calm   9mph /  14.5km/h 59% 0.00in /  0mm 792 W/m2
10:00 78.7 °F /  25.9 °C 64.1 °F /  17.8 °C 30.01in /  1016.1hPa East 3mph /  4.8km/h 8mph /  12.9km/h 61% 0.00in /  0mm 817 W/m2
10:10 79.7 °F /  26.5 °C 62.6 °F /  17 °C 30.01in /  1016.1hPa ESE 3mph /  4.8km/h 9mph /  14.5km/h 56% 0.00in /  0mm 837 W/m2
10:20 80.1 °F /  26.7 °C 62.5 °F /  16.9 °C 30.01in /  1016.1hPa ESE 5mph /  8km/h 9mph /  14.5km/h 55% 0.00in /  0mm 856 W/m2
10:30 80.8 °F /  27.1 °C 61.5 °F /  16.4 °C 30.00in /  1015.8hPa SE 2mph /  3.2km/h 12mph /  19.3km/h 52% 0.00in /  0mm 873 W/m2
10:40 81.1 °F /  27.3 °C 60.2 °F /  15.7 °C 30.00in /  1015.8hPa SSE 3mph /  4.8km/h 8mph /  12.9km/h 49% 0.00in /  0mm 653 W/m2
10:50 81.6 °F /  27.6 °C 61.1 °F /  16.2 °C 30.00in /  1015.8hPa SE 3mph /  4.8km/h 9mph /  14.5km/h 50% 0.00in /  0mm 905 W/m2
11:00 81.8 °F /  27.7 °C 58.3 °F /  14.6 °C 30.00in /  1015.8hPa SSW 5mph /  8km/h 8mph /  12.9km/h 45% 0.00in /  0mm 919 W/m2
11:10 82.1 °F /  27.8 °C 57.4 °F /  14.1 °C 30.00in /  1015.8hPa SW 5mph /  8km/h 8mph /  12.9km/h 43% 0.00in /  0mm 931 W/m2
11:20 82.5 °F /  28.1 °C 57.7 °F /  14.3 °C 29.99in /  1015.5hPa South 3mph /  4.8km/h 9mph /  14.5km/h 43% 0.00in /  0mm 513 W/m2
11:30 82.9 °F /  28.3 °C 56.1 °F /  13.4 °C 29.99in /  1015.5hPa SSE 5mph /  8km/h 9mph /  14.5km/h 40% 0.00in /  0mm 952 W/m2
11:40 83.3 °F /  28.5 °C 55.8 °F /  13.2 °C 29.99in /  1015.5hPa SW 2mph /  3.2km/h 12mph /  19.3km/h 39% 0.00in /  0mm 960 W/m2
11:50 83.5 °F /  28.6 °C 55.2 °F /  12.9 °C 29.99in /  1015.5hPa South 3mph /  4.8km/h 11mph /  17.7km/h 38% 0.00in /  0mm 961 W/m2
12:00 84.2 °F /  29 °C 56.6 °F /  13.7 °C 29.99in /  1015.5hPa SE 3mph /  4.8km/h 8mph /  12.9km/h 39% 0.00in /  0mm 696 W/m2
12:10 84.1 °F /  28.9 °C 56.5 °F /  13.6 °C 29.98in /  1015.1hPa SSE 6mph /  9.7km/h 10mph /  16.1km/h 39% 0.00in /  0mm 344 W/m2
12:20 84.4 °F /  29.1 °C 57.4 °F /  14.1 °C 29.98in /  1015.1hPa SSW 1mph /  1.6km/h 7mph /  11.3km/h 40% 0.00in /  0mm 793 W/m2
12:30 84.6 °F /  29.2 °C 56.2 °F /  13.4 °C 29.98in /  1015.1hPa SW 5mph /  8km/h 9mph /  14.5km/h 38% 0.00in /  0mm 919 W/m2
12:40 85 °F /  29.4 °C 56.6 °F /  13.7 °C 29.97in /  1014.8hPa SE 3mph /  4.8km/h 9mph /  14.5km/h 38% 0.00in /  0mm 529 W/m2
12:50 85.2 °F /  29.6 °C 57.4 °F /  14.1 °C 29.97in /  1014.8hPa West 5mph /  8km/h 9mph /  14.5km/h 39% 0.00in /  0mm 976 W/m2
13:00 85.6 °F /  29.8 °C 58.5 °F /  14.7 °C 29.97in /  1014.8hPa SW 3mph /  4.8km/h 9mph /  14.5km/h 40% 0.00in /  0mm 972 W/m2
13:10 85.8 °F /  29.9 °C 58.7 °F /  14.8 °C 29.96in /  1014.4hPa SSW 2mph /  3.2km/h 9mph /  14.5km/h 40% 0.00in /  0mm 967 W/m2
13:20 86 °F /  30 °C 57.4 °F /  14.1 °C 29.96in /  1014.4hPa South 2mph /  3.2km/h 6mph /  9.7km/h 38% 0.00in /  0mm 960 W/m2
13:30 86 °F /  30 °C 57.4 °F /  14.1 °C 29.96in /  1014.4hPa SE 2mph /  3.2km/h 8mph /  12.9km/h 38% 0.00in /  0mm 952 W/m2
13:40 86 °F /  30 °C 56.7 °F /  13.7 °C 29.96in /  1014.4hPa SSE 2mph /  3.2km/h 8mph /  12.9km/h 37% 0.00in /  0mm 942 W/m2
13:50 86.6 °F /  30.3 °C 58 °F /  14.4 °C 29.95in /  1014.1hPa ENE 5mph /  8km/h 9mph /  14.5km/h 38% 0.00in /  0mm 931 W/m2
14:00 86.8 °F /  30.4 °C 58.9 °F /  14.9 °C 29.95in /  1014.1hPa NE 5mph /  8km/h 9mph /  14.5km/h 39% 0.00in /  0mm 919 W/m2
14:10 87.4 °F /  30.8 °C 58.7 °F /  14.8 °C 29.95in /  1014.1hPa NNW 3mph /  4.8km/h 12mph /  19.3km/h 38% 0.00in /  0mm 905 W/m2
14:20 87.4 °F /  30.8 °C 59.4 °F /  15.2 °C 29.95in /  1014.1hPa North 5mph /  8km/h 8mph /  12.9km/h 39% 0.00in /  0mm 890 W/m2
14:30 87.8 °F /  31 °C 59.8 °F /  15.4 °C 29.95in /  1014.1hPa NNE 1mph /  1.6km/h 8mph /  12.9km/h 39% 0.00in /  0mm 873 W/m2
14:40 87.8 °F /  31 °C 59.8 °F /  15.4 °C 29.95in /  1014.1hPa SSE 3mph /  4.8km/h 8mph /  12.9km/h 39% 0.00in /  0mm 856 W/m2
Knjazevac, Serbia
Compliments of Weather Underground - 2 mb